createdAt,value
2016-08-12T00:00:36.997Z,741.48
2016-08-12T00:01:36.974Z,741.5
2016-08-12T00:03:36.941Z,741.42
2016-08-12T00:04:36.929Z,741.46
2016-08-12T00:05:36.917Z,741.58
2016-08-12T00:06:36.893Z,741.37
2016-08-12T00:07:36.878Z,741.3
2016-08-12T00:08:36.862Z,741.48
2016-08-12T00:09:36.854Z,741.31
2016-08-12T00:10:36.844Z,741.46
2016-08-12T00:11:36.815Z,741.4
2016-08-12T00:12:36.803Z,741.53
2016-08-12T00:13:36.780Z,741.45
2016-08-12T00:14:36.771Z,741.47
2016-08-12T00:15:36.756Z,741.44
2016-08-12T00:16:36.739Z,741.47
2016-08-12T00:17:36.723Z,741.59
2016-08-12T00:18:36.702Z,741.53
2016-08-12T00:19:36.693Z,741.41
2016-08-12T00:20:36.676Z,741.35
2016-08-12T00:21:36.661Z,741.54
2016-08-12T00:22:36.644Z,741.47
2016-08-12T00:23:36.620Z,741.48
2016-08-12T00:24:36.604Z,741.53
2016-08-12T00:25:36.595Z,741.45
2016-08-12T00:26:36.587Z,741.42
2016-08-12T00:27:36.556Z,741.54
2016-08-12T00:28:36.539Z,741.39
2016-08-12T00:29:36.530Z,741.43
2016-08-12T00:30:36.506Z,741.48
2016-08-12T00:31:36.489Z,741.55
2016-08-12T00:32:36.474Z,741.49
2016-08-12T00:33:36.458Z,741.4
2016-08-12T00:34:36.446Z,741.54
2016-08-12T00:35:36.423Z,741.49
2016-08-12T00:36:36.416Z,741.46
2016-08-12T00:37:36.399Z,741.53
2016-08-12T00:38:36.374Z,741.46
2016-08-12T00:39:36.365Z,741.54
2016-08-12T00:40:36.343Z,741.54
2016-08-12T00:41:36.326Z,741.51
2016-08-12T00:42:36.308Z,741.54
2016-08-12T00:43:36.300Z,741.36
2016-08-12T00:44:36.283Z,741.6
2016-08-12T00:45:36.267Z,741.47
2016-08-12T00:46:36.242Z,741.19
2016-08-12T00:47:36.227Z,741.35
2016-08-12T00:48:36.210Z,741.45
2016-08-12T00:49:36.199Z,741.48
2016-08-12T00:50:36.177Z,741.51
2016-08-12T00:51:36.172Z,741.37
2016-08-12T00:52:36.150Z,741.35
2016-08-12T00:53:36.134Z,741.43
2016-08-12T00:54:36.110Z,741.52
2016-08-12T00:55:36.093Z,741.33
2016-08-12T00:56:36.084Z,741.39
2016-08-12T00:57:36.068Z,741.49
2016-08-12T00:58:36.051Z,741.27
2016-08-12T00:59:36.035Z,741.42
2016-08-12T01:00:36.011Z,741.05
2016-08-12T01:01:35.994Z,741.42
2016-08-12T01:02:35.979Z,741.45
2016-08-12T01:03:35.969Z,741.24
2016-08-12T01:04:35.951Z,741.35
2016-08-12T01:05:35.935Z,741.35
2016-08-12T01:06:35.912Z,741.27
2016-08-12T01:07:35.894Z,741.39
2016-08-12T01:08:35.884Z,741.4
2016-08-12T01:09:35.866Z,741.45
2016-08-12T01:10:35.847Z,741.32
2016-08-12T01:11:35.829Z,741.46
2016-08-12T01:12:35.813Z,741.29
2016-08-12T01:13:35.804Z,741.33
2016-08-12T01:14:35.779Z,741.25
2016-08-12T01:15:35.764Z,741.11
2016-08-12T01:16:35.747Z,741.29
2016-08-12T01:17:35.731Z,741.29
2016-08-12T01:18:35.721Z,741.36
2016-08-12T01:19:35.712Z,741.27
2016-08-12T01:20:35.688Z,741.29
2016-08-12T01:21:35.664Z,741.37
2016-08-12T01:22:35.660Z,741.27
2016-08-12T01:23:35.631Z,741.29
2016-08-12T01:24:35.614Z,741.31
2016-08-12T01:25:35.604Z,741.34
2016-08-12T01:26:35.588Z,741.38
2016-08-12T01:27:35.564Z,741.42
2016-08-12T01:28:35.549Z,741.16
2016-08-12T01:29:35.538Z,741.32
2016-08-12T01:30:35.517Z,741.27
2016-08-12T01:31:35.506Z,741.32
2016-08-12T01:32:35.491Z,741.25
2016-08-12T01:34:35.457Z,741.26
2016-08-12T01:35:35.434Z,741.2
2016-08-12T01:36:35.423Z,741.22
2016-08-12T01:37:35.400Z,740.98
2016-08-12T01:38:35.383Z,741.26
2016-08-12T01:39:35.366Z,741.14
2016-08-12T01:40:35.357Z,741.09
2016-08-12T01:41:35.334Z,741.21
2016-08-12T01:42:35.317Z,741.1
2016-08-12T01:43:35.308Z,741.19
2016-08-12T01:44:35.290Z,741.13
2016-08-12T01:45:35.274Z,741.16
2016-08-12T01:46:35.257Z,741.12
2016-08-12T01:47:35.239Z,741.16
2016-08-12T01:48:35.215Z,741.2
2016-08-12T01:49:35.207Z,741.14
2016-08-12T01:50:35.183Z,741.09
2016-08-12T01:51:35.166Z,741.19
2016-08-12T01:52:35.156Z,741.19
2016-08-12T01:53:35.132Z,741.21
2016-08-12T01:54:35.136Z,741.09
2016-08-12T01:55:35.100Z,741.04
2016-08-12T01:56:35.089Z,741.1
2016-08-12T01:57:35.068Z,741.21
2016-08-12T01:58:35.050Z,741.09
2016-08-12T01:59:35.033Z,741.15
2016-08-12T02:00:35.024Z,741.08
2016-08-12T02:01:35.007Z,741.06
2016-08-12T02:02:34.990Z,740.93
2016-08-12T02:04:34.956Z,741.14
2016-08-12T02:05:34.940Z,741.07
2016-08-12T02:06:34.923Z,740.98
2016-08-12T02:07:34.906Z,741.07
2016-08-12T02:08:34.890Z,741.07
2016-08-12T02:09:34.865Z,741.14
2016-08-12T02:10:34.850Z,741.1
2016-08-12T02:11:34.832Z,741.16
2016-08-12T02:12:34.822Z,741.08
2016-08-12T02:13:34.799Z,741.1
2016-08-12T02:14:34.781Z,741.18
2016-08-12T02:15:34.765Z,740.8
2016-08-12T02:16:34.749Z,741.15
2016-08-12T02:17:34.737Z,741.1
2016-08-12T02:18:34.712Z,740.99
2016-08-12T02:19:34.704Z,741.07
2016-08-12T02:20:34.679Z,741.12
2016-08-12T02:21:34.669Z,740.98
2016-08-12T02:22:34.653Z,741.11
2016-08-12T02:23:34.636Z,741.1
2016-08-12T02:24:34.612Z,741.03
2016-08-12T02:25:34.604Z,741.08
2016-08-12T02:26:34.585Z,741.14
2016-08-12T02:27:34.568Z,741.04
2016-08-12T02:28:34.544Z,741.01
2016-08-12T02:29:34.535Z,740.95
2016-08-12T02:30:34.517Z,741.1
2016-08-12T02:31:34.492Z,741.14
2016-08-12T02:32:34.477Z,741.02
2016-08-12T02:33:34.460Z,741.09
2016-08-12T02:34:34.449Z,741.08
2016-08-12T02:35:34.426Z,740.93
2016-08-12T02:36:34.409Z,740.96
2016-08-12T02:37:34.394Z,741.19
2016-08-12T02:38:34.377Z,740.93
2016-08-12T02:39:34.359Z,740.99
2016-08-12T02:40:34.342Z,741.04
2016-08-12T02:41:34.333Z,741
2016-08-12T02:42:34.308Z,741.07
2016-08-12T02:43:34.291Z,741.19
2016-08-12T02:44:34.283Z,740.97
2016-08-12T02:45:34.266Z,741.11
2016-08-12T02:46:34.248Z,741
2016-08-12T02:47:34.226Z,740.96
2016-08-12T02:49:34.193Z,740.97
2016-08-12T02:50:34.176Z,741
2016-08-12T02:51:34.166Z,741.01
2016-08-12T02:52:34.151Z,740.82
2016-08-12T02:53:34.133Z,740.93
2016-08-12T02:54:34.109Z,740.88
2016-08-12T02:55:34.100Z,740.93
2016-08-12T02:56:34.084Z,740.93
2016-08-12T02:57:34.058Z,740.96
2016-08-12T02:58:34.043Z,740.88
2016-08-12T02:59:34.035Z,740.97
2016-08-12T03:00:34.016Z,740.9
2016-08-12T03:01:33.993Z,740.94
2016-08-12T03:02:33.978Z,740.97
2016-08-12T03:04:33.944Z,740.83
2016-08-12T03:05:33.934Z,740.88
2016-08-12T03:06:33.918Z,740.91
2016-08-12T03:07:33.945Z,740.87
2016-08-12T03:08:33.885Z,741
2016-08-12T03:09:33.861Z,740.98
2016-08-12T03:10:33.846Z,740.82
2016-08-12T03:11:33.829Z,740.86
2016-08-12T03:12:33.819Z,740.85
2016-08-12T03:13:33.803Z,740.79
2016-08-12T03:14:33.786Z,741
2016-08-12T03:15:33.762Z,741.02
2016-08-12T03:16:33.753Z,740.78
2016-08-12T03:17:33.737Z,740.96
2016-08-12T03:19:33.696Z,740.85
2016-08-12T03:20:33.688Z,740.96
2016-08-12T03:21:33.664Z,740.93
2016-08-12T03:22:33.648Z,740.99
2016-08-12T03:23:33.630Z,740.9
2016-08-12T03:24:33.621Z,740.98
2016-08-12T03:25:33.604Z,740.94
2016-08-12T03:26:33.587Z,740.82
2016-08-12T03:27:33.571Z,741.11
2016-08-12T03:28:33.547Z,741.05
2016-08-12T03:29:33.532Z,740.93
2016-08-12T03:30:33.521Z,741.2
2016-08-12T03:31:33.498Z,741.03
2016-08-12T03:32:33.489Z,740.92
2016-08-12T03:34:33.448Z,741.25
2016-08-12T03:35:33.439Z,740.85
2016-08-12T03:36:33.417Z,740.88
2016-08-12T03:37:33.399Z,741.18
2016-08-12T03:38:33.384Z,740.96
2016-08-12T03:39:33.367Z,740.77
2016-08-12T03:40:33.351Z,740.65
2016-08-12T03:41:33.341Z,741.16
2016-08-12T03:42:33.319Z,740.46
2016-08-12T03:43:33.308Z,741.21
2016-08-12T03:44:33.285Z,740.96
2016-08-12T03:45:33.277Z,740.99
2016-08-12T03:46:33.254Z,741.02
2016-08-12T03:47:33.244Z,740.9
2016-08-12T03:48:33.221Z,740.99
2016-08-12T03:49:33.211Z,740.83
2016-08-12T03:50:33.188Z,741.06
2016-08-12T03:51:33.172Z,741.13
2016-08-12T03:52:33.162Z,741.11
2016-08-12T03:53:33.145Z,740.95
2016-08-12T03:54:33.130Z,740.94
2016-08-12T03:55:33.113Z,741.03
2016-08-12T03:56:33.096Z,741.07
2016-08-12T03:57:33.080Z,740.97
2016-08-12T03:58:33.065Z,740.87
2016-08-12T03:59:33.047Z,740.9
2016-08-12T04:00:33.031Z,741.12
2016-08-12T04:01:33.008Z,740.74
2016-08-12T04:02:32.999Z,740.88
2016-08-12T04:03:32.976Z,741.11
2016-08-12T04:04:32.974Z,741.13
2016-08-12T04:05:32.951Z,740.96
2016-08-12T04:06:32.926Z,741.13
2016-08-12T04:07:32.918Z,740.91
2016-08-12T04:08:32.895Z,740.91
2016-08-12T04:09:32.879Z,741.21
2016-08-12T04:10:32.871Z,740.81
2016-08-12T04:11:32.854Z,740.86
2016-08-12T04:12:32.832Z,741.1
2016-08-12T04:13:32.815Z,740.97
2016-08-12T04:14:32.799Z,741.04
2016-08-12T04:15:32.790Z,741.11
2016-08-12T04:16:32.774Z,741.19
2016-08-12T04:17:32.758Z,741.16
2016-08-12T04:18:32.741Z,741.41
2016-08-12T04:19:32.718Z,741.13
2016-08-12T04:20:32.710Z,741.1
2016-08-12T04:21:32.689Z,741.07
2016-08-12T04:22:32.669Z,740.91
2016-08-12T04:23:32.657Z,740.96
2016-08-12T04:24:32.639Z,741.27
2016-08-12T04:25:32.629Z,741.24
2016-08-12T04:26:32.607Z,740.63
2016-08-12T04:27:32.597Z,741.03
2016-08-12T04:28:32.573Z,740.79
2016-08-12T04:29:32.564Z,741.28
2016-08-12T04:30:32.541Z,741.33
2016-08-12T04:31:32.531Z,741.32
2016-08-12T04:32:32.514Z,741.12
2016-08-12T04:33:32.493Z,741.08
2016-08-12T04:34:32.477Z,741.03
2016-08-12T04:35:32.460Z,740.95
2016-08-12T04:36:32.444Z,740.87
2016-08-12T04:37:32.434Z,741.07
2016-08-12T04:38:32.419Z,741.26
2016-08-12T04:39:32.394Z,741.31
2016-08-12T04:40:32.386Z,741.14
2016-08-12T04:41:32.363Z,741.2
2016-08-12T04:42:32.352Z,741.39
2016-08-12T04:43:32.336Z,741.15
2016-08-12T04:44:32.320Z,741.49
2016-08-12T04:45:32.304Z,741.56
2016-08-12T04:46:32.282Z,741.46
2016-08-12T04:47:32.271Z,740.93
2016-08-12T04:48:32.249Z,741.26
2016-08-12T04:49:32.240Z,741.02
2016-08-12T04:50:32.224Z,741.35
2016-08-12T04:51:32.208Z,741.13
2016-08-12T04:52:32.185Z,741.41
2016-08-12T04:53:32.176Z,741.64
2016-08-12T04:54:32.152Z,741.28
2016-08-12T04:55:32.136Z,741.48
2016-08-12T04:56:32.121Z,741.44
2016-08-12T04:57:32.108Z,741.02
2016-08-12T04:58:32.095Z,741.41
2016-08-12T04:59:32.079Z,741.48
2016-08-12T05:00:32.058Z,741.46
2016-08-12T05:01:32.039Z,741.84
2016-08-12T05:02:32.031Z,741.61
2016-08-12T05:03:32.008Z,741.46
2016-08-12T05:04:32.000Z,741.84
2016-08-12T05:05:31.975Z,741.48
2016-08-12T05:06:31.959Z,741.51
2016-08-12T05:07:31.944Z,741.7
2016-08-12T05:08:31.933Z,741.57
2016-08-12T05:09:31.918Z,741.68
2016-08-12T05:10:31.895Z,741.81
2016-08-12T05:11:31.886Z,741.53
2016-08-12T05:12:31.869Z,741.63
2016-08-12T05:13:31.854Z,741.7
2016-08-12T05:14:31.839Z,741.65
2016-08-12T05:15:31.822Z,741.71
2016-08-12T05:16:31.805Z,741.68
2016-08-12T05:17:31.782Z,741.67
2016-08-12T05:18:31.766Z,741.57
2016-08-12T05:19:31.757Z,741.44
2016-08-12T05:20:31.735Z,741.8
2016-08-12T05:21:31.719Z,741.82
2016-08-12T05:22:31.709Z,741.67
2016-08-12T05:23:31.686Z,741.81
2016-08-12T05:24:31.672Z,741.68
2016-08-12T05:25:31.660Z,741.9
2016-08-12T05:26:31.639Z,741.74
2016-08-12T05:27:31.630Z,741.94
2016-08-12T05:28:31.607Z,741.97
2016-08-12T05:29:31.592Z,741.78
2016-08-12T05:30:31.576Z,741.88
2016-08-12T05:31:31.561Z,741.83
2016-08-12T05:32:31.546Z,741.55
2016-08-12T05:33:31.535Z,741.51
2016-08-12T05:34:31.511Z,741.41
2016-08-12T05:35:31.504Z,741.81
2016-08-12T05:36:31.489Z,741.62
2016-08-12T05:37:31.473Z,741.67
2016-08-12T05:38:31.449Z,742.1
2016-08-12T05:39:31.434Z,741.77
2016-08-12T05:40:31.419Z,741.95
2016-08-12T05:41:31.400Z,741.85
2016-08-12T05:42:31.386Z,741.79
2016-08-12T05:43:31.381Z,741.89
2016-08-12T05:44:31.362Z,741.79
2016-08-12T05:45:31.345Z,741.75
2016-08-12T05:46:31.321Z,741.6
2016-08-12T05:47:31.313Z,741.72
2016-08-12T05:48:31.298Z,741.75
2016-08-12T05:49:31.276Z,741.77
2016-08-12T05:50:31.266Z,741.78
2016-08-12T05:51:31.245Z,741.84
2016-08-12T05:52:31.227Z,741.75
2016-08-12T05:53:31.219Z,741.89
2016-08-12T05:54:31.205Z,741.97
2016-08-12T05:55:31.189Z,741.79
2016-08-12T05:56:31.170Z,741.86
2016-08-12T05:57:31.150Z,741.98
2016-08-12T05:58:31.143Z,742.01
2016-08-12T05:59:31.121Z,741.83
2016-08-12T06:00:31.114Z,741.94
2016-08-12T06:01:31.098Z,741.91
2016-08-12T06:02:31.084Z,741.97
2016-08-12T06:03:31.061Z,741.91
2016-08-12T06:04:31.052Z,742.08
2016-08-12T06:05:31.037Z,741.98
2016-08-12T06:06:31.015Z,741.95
2016-08-12T06:07:31.006Z,742.09
2016-08-12T06:08:30.983Z,742.16
2016-08-12T06:09:30.977Z,742.01
2016-08-12T06:10:30.955Z,742.09
2016-08-12T06:11:30.946Z,742.01
2016-08-12T06:12:30.925Z,742.03
2016-08-12T06:13:30.909Z,742.15
2016-08-12T06:14:30.896Z,742.11
2016-08-12T06:15:30.880Z,742.16
2016-08-12T06:16:30.865Z,742.16
2016-08-12T06:17:30.850Z,742.18
2016-08-12T06:18:30.834Z,742.18
2016-08-12T06:19:30.828Z,742.12
2016-08-12T06:20:30.807Z,742.08
2016-08-12T06:21:30.792Z,742.1
2016-08-12T06:22:30.784Z,742.15
2016-08-12T06:23:30.770Z,742.03
2016-08-12T06:24:30.755Z,742.15
2016-08-12T06:25:30.740Z,741.87
2016-08-12T06:26:30.724Z,742.02
2016-08-12T06:27:30.703Z,741.91
2016-08-12T06:28:30.696Z,742.03
2016-08-12T06:29:30.680Z,742.07
2016-08-12T06:30:30.658Z,741.9
2016-08-12T06:31:30.644Z,742.03
2016-08-12T06:32:30.634Z,742.08
2016-08-12T06:33:30.612Z,741.98
2016-08-12T06:34:30.598Z,742.1
2016-08-12T06:35:30.590Z,742.13
2016-08-12T06:36:30.567Z,742.17
2016-08-12T06:37:30.558Z,742.32
2016-08-12T06:38:30.537Z,742.2
2016-08-12T06:39:30.523Z,742.26
2016-08-12T06:40:30.514Z,742.33
2016-08-12T06:41:30.505Z,742.42
2016-08-12T06:42:30.480Z,742.3
2016-08-12T06:43:30.469Z,742.4
2016-08-12T06:44:30.450Z,742.37
2016-08-12T06:45:30.441Z,742.36
2016-08-12T06:46:30.426Z,742.34
2016-08-12T06:47:30.411Z,742.39
2016-08-12T06:48:30.397Z,742.45
2016-08-12T06:50:30.368Z,742.53
2016-08-12T06:51:30.349Z,742.57
2016-08-12T06:52:30.331Z,742.52
2016-08-12T06:56:30.275Z,742.51
2016-08-12T06:57:30.268Z,742.54
2016-08-12T06:58:30.245Z,742.64
2016-08-12T06:59:30.239Z,742.58
2016-08-12T07:00:30.218Z,742.52
2016-08-12T07:01:30.206Z,742.57
2016-08-12T07:02:30.188Z,742.58
2016-08-12T07:03:30.182Z,742.64
2016-08-12T07:04:30.168Z,742.62
2016-08-12T07:05:30.146Z,742.65
2016-08-12T07:06:30.132Z,742.71
2016-08-12T07:07:30.125Z,742.7
2016-08-12T07:08:30.104Z,742.73
2016-08-12T07:09:30.097Z,742.79
2016-08-12T07:10:30.083Z,742.75
2016-08-12T07:11:30.064Z,742.76
2016-08-12T07:12:30.050Z,742.82
2016-08-12T07:13:30.041Z,742.82
2016-08-12T07:14:30.021Z,742.79
2016-08-12T07:15:30.015Z,742.79
2016-08-12T07:16:30.000Z,742.83
2016-08-12T07:17:29.982Z,742.81
2016-08-12T07:18:29.973Z,742.83
2016-08-12T07:19:29.955Z,742.88
2016-08-12T07:20:29.938Z,742.91
2016-08-12T07:21:29.925Z,742.81
2016-08-12T07:22:29.912Z,742.77
2016-08-12T07:23:29.896Z,742.78
2016-08-12T07:24:29.883Z,742.85
2016-08-12T07:25:29.875Z,742.86
2016-08-12T07:26:29.860Z,742.85
2016-08-12T07:27:29.842Z,742.96
2016-08-12T07:28:29.832Z,742.95
2016-08-12T07:29:29.811Z,743
2016-08-12T07:30:29.804Z,742.93
2016-08-12T07:31:29.783Z,742.93
2016-08-12T07:32:29.776Z,742.96
2016-08-12T07:33:29.755Z,742.95
2016-08-12T07:35:29.728Z,743.03
2016-08-12T07:36:29.720Z,743.03
2016-08-12T07:37:29.707Z,743.12
2016-08-12T07:38:29.685Z,743.15
2016-08-12T07:39:29.673Z,743.12
2016-08-12T07:40:29.656Z,743.14
2016-08-12T07:41:29.651Z,743.12
2016-08-12T07:42:29.637Z,743.12
2016-08-12T07:43:29.615Z,743.11
2016-08-12T07:44:29.610Z,743.08
2016-08-12T07:45:29.595Z,743.13
2016-08-12T07:46:29.574Z,743.04
2016-08-12T07:47:29.560Z,743.1
2016-08-12T07:48:29.554Z,743.17
2016-08-12T07:50:29.540Z,743.14
2016-08-12T07:51:29.505Z,743.09
2016-08-12T07:52:29.498Z,743.02
2016-08-12T07:53:29.481Z,743.09
2016-08-12T07:54:29.471Z,743.13
2016-08-12T07:55:29.456Z,743.15
2016-08-12T07:56:29.434Z,743.15
2016-08-12T07:57:29.428Z,743.19
2016-08-12T07:58:29.414Z,743.23
2016-08-12T07:59:29.394Z,743.28
2016-08-12T08:00:29.380Z,743.23
2016-08-12T08:01:29.372Z,743.2
2016-08-12T08:02:29.351Z,743.2
2016-08-12T08:03:29.352Z,743.23
2016-08-12T08:05:29.318Z,743.17
2016-08-12T08:06:29.302Z,743.21
2016-08-12T08:07:29.289Z,743.23
2016-08-12T08:08:29.318Z,743.28
2016-08-12T08:09:29.261Z,743.28
2016-08-12T08:10:29.248Z,743.33
2016-08-12T08:11:29.233Z,743.32
2016-08-12T08:12:29.214Z,743.33
2016-08-12T08:13:29.199Z,743.35
2016-08-12T08:14:29.192Z,743.38
2016-08-12T08:15:29.170Z,743.3
2016-08-12T08:16:29.166Z,743.25
2016-08-12T08:17:29.144Z,743.29
2016-08-12T08:18:29.131Z,743.34
2016-08-12T08:19:29.123Z,743.38
2016-08-12T08:20:29.104Z,743.28
2016-08-12T08:21:29.096Z,743.36
2016-08-12T08:22:29.077Z,743.36
2016-08-12T08:23:29.068Z,743.37
2016-08-12T08:24:29.048Z,743.34
2016-08-12T08:25:29.033Z,743.42
2016-08-12T08:26:29.024Z,743.37
2016-08-12T08:27:29.006Z,743.42
2016-08-12T08:28:29.000Z,743.42
2016-08-12T08:29:28.986Z,743.42
2016-08-12T08:30:28.972Z,743.44
2016-08-12T08:31:28.959Z,743.45
2016-08-12T08:32:28.939Z,743.49
2016-08-12T08:33:28.932Z,743.5
2016-08-12T08:34:28.912Z,743.5
2016-08-12T08:35:28.912Z,743.46
2016-08-12T08:36:28.894Z,743.47
2016-08-12T08:37:28.880Z,743.51
2016-08-12T08:38:28.874Z,743.52
2016-08-12T08:39:28.858Z,743.53
2016-08-12T08:40:28.833Z,743.55
2016-08-12T08:41:28.829Z,743.56
2016-08-12T08:42:28.809Z,743.51
2016-08-12T08:43:28.803Z,743.52
2016-08-12T08:44:28.790Z,743.48
2016-08-12T08:45:28.778Z,743.57
2016-08-12T08:46:28.764Z,743.54
2016-08-12T08:47:28.745Z,743.56
2016-08-12T08:48:28.732Z,743.58
2016-08-12T08:49:28.726Z,743.61
2016-08-12T08:50:28.706Z,743.61
2016-08-12T08:51:28.694Z,743.64
2016-08-12T08:52:28.689Z,743.59
2016-08-12T08:53:28.676Z,743.63
2016-08-12T08:54:28.663Z,743.67
2016-08-12T08:55:28.651Z,743.58
2016-08-12T08:56:28.632Z,743.58
2016-08-12T08:57:28.625Z,743.67
2016-08-12T08:58:28.607Z,743.69
2016-08-12T08:59:28.602Z,743.71
2016-08-12T09:00:28.581Z,743.74
2016-08-12T09:01:28.571Z,743.72
2016-08-12T09:02:28.563Z,743.73
2016-08-12T09:03:28.544Z,743.75
2016-08-12T09:04:28.539Z,743.71
2016-08-12T09:05:28.519Z,743.7
2016-08-12T09:06:28.506Z,743.72
2016-08-12T09:07:28.494Z,743.71
2016-08-12T09:08:28.481Z,743.72
2016-08-12T09:09:28.476Z,743.69
2016-08-12T09:10:28.457Z,743.75
2016-08-12T09:11:28.452Z,743.71
2016-08-12T09:12:28.440Z,743.74
2016-08-12T09:13:28.431Z,743.76
2016-08-12T09:14:28.414Z,743.76
2016-08-12T09:15:28.396Z,743.77
2016-08-12T09:16:28.382Z,743.82
2016-08-12T09:17:28.376Z,743.87
2016-08-12T09:18:28.365Z,743.79
2016-08-12T09:19:28.344Z,743.83
2016-08-12T09:20:28.345Z,743.87
2016-08-12T09:21:28.328Z,743.88
2016-08-12T09:22:28.315Z,743.85
2016-08-12T09:23:28.303Z,743.85
2016-08-12T09:24:28.284Z,743.87
2016-08-12T09:25:28.278Z,743.84
2016-08-12T09:26:28.267Z,743.9
2016-08-12T09:27:28.249Z,743.87
2016-08-12T09:28:28.235Z,743.81
2016-08-12T09:29:28.223Z,743.79
2016-08-12T09:30:28.220Z,743.79
2016-08-12T09:31:28.205Z,743.85
2016-08-12T09:32:28.193Z,743.89
2016-08-12T09:33:28.175Z,743.87
2016-08-12T09:34:28.163Z,743.84
2016-08-12T09:35:28.150Z,743.89
2016-08-12T09:36:28.144Z,743.91
2016-08-12T09:37:28.126Z,743.96
2016-08-12T09:38:28.114Z,743.97
2016-08-12T09:39:28.101Z,744.02
2016-08-12T09:40:28.089Z,743.99
2016-08-12T09:41:28.076Z,743.98
2016-08-12T09:42:28.065Z,744.02
2016-08-12T09:43:28.053Z,744
2016-08-12T09:44:28.048Z,743.93
2016-08-12T09:45:28.037Z,743.98
2016-08-12T09:46:28.016Z,743.98
2016-08-12T09:47:28.006Z,743.97
2016-08-12T09:48:28.001Z,743.97
2016-08-12T09:49:27.988Z,743.97
2016-08-12T09:50:27.970Z,744.01
2016-08-12T09:51:27.957Z,744.03
2016-08-12T09:52:27.953Z,744.06
2016-08-12T09:53:27.939Z,744.04
2016-08-12T09:54:27.927Z,744.05
2016-08-12T09:55:27.915Z,744.06
2016-08-12T09:56:27.904Z,744.04
2016-08-12T09:57:27.888Z,744.08
2016-08-12T09:58:27.880Z,744.08
2016-08-12T09:59:27.862Z,744.06
2016-08-12T10:00:27.850Z,744.04
2016-08-12T10:01:27.838Z,744.04
2016-08-12T10:02:27.833Z,744.02
2016-08-12T10:03:27.815Z,744.02
2016-08-12T10:04:27.801Z,744.03
2016-08-12T10:05:27.791Z,744.05
2016-08-12T10:06:27.779Z,744.04
2016-08-12T10:07:27.775Z,744.07
2016-08-12T10:08:27.755Z,744.05
2016-08-12T10:09:27.744Z,744.06
2016-08-12T10:10:27.740Z,744.06
2016-08-12T10:11:27.728Z,744.11
2016-08-12T10:12:27.720Z,744.09
2016-08-12T10:13:27.698Z,744.05
2016-08-12T10:14:27.686Z,744.08
2016-08-12T10:15:27.681Z,744.12
2016-08-12T10:16:27.670Z,744.04
2016-08-12T10:17:27.659Z,744.08
2016-08-12T10:18:27.647Z,744.03
2016-08-12T10:19:27.636Z,744.08
2016-08-12T12:03:26.468Z,744.84
2016-08-12T12:04:26.450Z,744.86
2016-08-12T12:05:26.445Z,744.82
2016-08-12T12:06:26.428Z,744.82
2016-08-12T12:07:26.417Z,744.67
2016-08-12T12:08:26.415Z,744.71
2016-08-12T12:09:26.402Z,744.74
2016-08-12T12:10:26.392Z,744.7
2016-08-12T12:11:26.375Z,744.72
2016-08-12T12:12:26.364Z,744.75
2016-08-12T12:13:26.360Z,744.73
2016-08-12T12:14:26.342Z,744.7
2016-08-12T12:15:26.344Z,744.71
2016-08-12T12:16:26.320Z,744.78
2016-08-12T12:17:26.308Z,744.75
2016-08-12T12:18:26.305Z,744.73
2016-08-12T12:19:26.286Z,744.78
2016-08-12T12:20:26.282Z,744.75
2016-08-12T12:21:26.265Z,744.77
2016-08-12T12:22:26.255Z,744.79
2016-08-12T12:23:26.248Z,744.81
2016-08-12T12:24:26.231Z,744.8
2016-08-12T12:25:26.230Z,744.81
2016-08-12T12:26:26.232Z,744.78
2016-08-12T12:27:26.198Z,744.82
2016-08-12T12:28:26.187Z,744.82
2016-08-12T12:29:26.181Z,744.82
2016-08-12T12:30:26.162Z,744.83
2016-08-12T12:31:26.154Z,744.89
2016-08-12T12:32:26.147Z,744.85
2016-08-12T12:33:26.128Z,744.8
2016-08-12T12:34:26.120Z,744.86
2016-08-12T12:35:26.115Z,744.88
2016-08-12T12:36:26.097Z,744.86
2016-08-12T12:37:26.091Z,744.9
2016-08-12T12:38:26.081Z,744.87
2016-08-12T12:39:26.063Z,744.86
2016-08-12T12:41:26.047Z,744.92
2016-08-12T12:42:26.037Z,744.92
2016-08-12T12:43:26.019Z,744.85
2016-08-12T12:44:26.015Z,744.82
2016-08-12T12:45:25.995Z,744.86
2016-08-12T12:46:25.986Z,744.93
2016-08-12T12:47:25.975Z,744.93
2016-08-12T12:48:25.973Z,744.93
2016-08-12T12:49:25.954Z,744.87
2016-08-12T12:50:25.945Z,744.92
2016-08-12T12:51:25.940Z,744.91
2016-08-12T12:52:25.920Z,744.99
2016-08-12T12:54:25.907Z,745.01
2016-08-12T12:55:25.898Z,744.96
2016-08-12T12:56:25.883Z,744.94
2016-08-12T12:57:25.866Z,744.93
2016-08-12T12:58:25.863Z,745.01
2016-08-12T12:59:25.853Z,744.99
2016-08-12T13:00:25.842Z,745.02
2016-08-12T13:01:25.823Z,745.05
2016-08-12T13:02:25.814Z,745.05
2016-08-12T13:03:25.802Z,745.03
2016-08-12T13:04:25.798Z,745.04
2016-08-12T13:05:25.789Z,745.06
2016-08-12T13:06:25.769Z,745.07
2016-08-12T13:07:25.757Z,745.13
2016-08-12T13:08:25.747Z,745.15
2016-08-12T13:09:25.892Z,745.16
2016-08-12T13:10:25.726Z,745.13
2016-08-12T13:11:25.714Z,745.13
2016-08-12T13:12:25.701Z,745.11
2016-08-12T13:13:25.690Z,745.09
2016-08-12T13:14:25.688Z,745.13
2016-08-12T13:15:25.675Z,745.17
2016-08-12T13:16:25.666Z,745.18
2016-08-12T13:17:25.654Z,745.2
2016-08-12T13:18:25.635Z,745.21
2016-08-12T13:19:25.623Z,745.23
2016-08-12T13:20:25.620Z,745.24
2016-08-12T13:21:25.608Z,745.24
2016-08-12T13:22:25.598Z,745.25
2016-08-12T13:23:25.586Z,745.25
2016-08-12T13:24:25.572Z,745.22
2016-08-12T13:25:25.554Z,745.26
2016-08-12T13:26:25.546Z,745.26
2016-08-12T13:27:25.541Z,745.27
2016-08-12T13:28:25.530Z,745.23
2016-08-12T13:29:25.523Z,745.27
2016-08-12T13:30:25.508Z,745.25
2016-08-12T13:31:25.495Z,745.27
2016-08-12T13:32:25.485Z,745.31
2016-08-12T13:33:25.467Z,745.29
2016-08-12T13:34:25.457Z,745.28
2016-08-12T13:35:25.444Z,745.32
2016-08-12T13:36:25.433Z,745.31
2016-08-12T13:37:25.429Z,745.37
2016-08-12T13:38:25.412Z,745.35
2016-08-12T13:39:25.407Z,745.35
2016-08-12T13:40:25.396Z,745.34
2016-08-12T13:41:25.385Z,745.35
2016-08-12T13:42:25.373Z,745.33
2016-08-12T13:43:25.357Z,745.36
2016-08-12T13:44:25.346Z,745.37
2016-08-12T13:45:25.340Z,745.32
2016-08-12T13:46:25.332Z,745.29
2016-08-12T13:47:25.318Z,745.35
2016-08-12T13:48:25.301Z,745.32
2016-08-12T13:49:25.290Z,745.35
2016-08-12T13:50:25.288Z,745.32
2016-08-12T13:51:25.275Z,745.33
2016-08-12T13:52:25.263Z,745.34
2016-08-12T13:53:25.258Z,745.37
2016-08-12T13:54:25.240Z,745.36
2016-08-12T13:55:25.223Z,745.35
2016-08-12T13:56:25.219Z,745.4
2016-08-12T13:57:25.209Z,745.4
2016-08-12T13:58:25.189Z,745.41
2016-08-12T13:59:25.187Z,745.43
2016-08-12T14:00:25.175Z,745.4
2016-08-12T14:01:25.166Z,745.35
2016-08-12T14:02:25.155Z,745.35
2016-08-12T14:03:25.145Z,745.44
2016-08-12T14:04:25.134Z,745.44
2016-08-12T14:05:25.123Z,745.41
2016-08-12T14:06:25.105Z,745.45
2016-08-12T14:07:25.101Z,745.48
2016-08-12T14:08:25.089Z,745.47
2016-08-12T14:09:25.079Z,745.47
2016-08-12T14:10:25.060Z,745.45
2016-08-12T14:11:25.058Z,745.48
2016-08-12T14:12:25.048Z,745.53
2016-08-12T14:13:25.029Z,745.48
2016-08-12T14:14:25.027Z,745.41
2016-08-12T14:15:25.018Z,745.53
2016-08-12T14:16:25.000Z,745.5
2016-08-12T14:17:24.987Z,745.51
2016-08-12T14:18:24.986Z,745.52
2016-08-12T14:19:24.972Z,745.54
2016-08-12T14:20:24.962Z,745.51
2016-08-12T14:21:24.952Z,745.51
2016-08-12T14:22:24.941Z,745.58
2016-08-12T14:23:24.923Z,745.55
2016-08-12T14:24:24.913Z,745.54
2016-08-12T14:25:24.903Z,745.5
2016-08-12T14:26:24.891Z,745.56
2016-08-12T14:27:24.881Z,745.53
2016-08-12T14:28:24.869Z,745.54
2016-08-12T14:29:24.865Z,745.54